Time;durP1;ratioP1;P1;durP2;ratioP2;P2;SDS_P1;SDS_P2;PMS_P1;PMS_P2;Temp;Humidity;BMP_temperature;BMP_pressure;BME280_temperature;BME280_humidity;BME280_pressure;Samples;Min_cycle;Max_cycle;Signal;HPM_P1;HPM_P2
2021/06/26 00:01:21;;;;;;;19.85;10.93;;;;;;;15.48;100.00;96577.28;5019519;28;20229;-74
2021/06/26 00:03:47;;;;;;;23.88;11.68;;;;;;;15.32;100.00;96573.16;5019648;28;20206;-73
2021/06/26 00:06:14;;;;;;;18.02;10.77;;;;;;;15.32;100.00;96569.66;5019048;28;20324;-74
2021/06/26 00:08:42;;;;;;;21.80;10.30;;;;;;;15.25;100.00;96566.16;5019732;28;20216;-74
2021/06/26 00:11:08;;;;;;;20.30;11.23;;;;;;;15.27;100.00;96564.94;5019284;28;20202;-74
2021/06/26 00:13:35;;;;;;;20.60;11.35;;;;;;;15.24;100.00;96563.72;5020029;28;20212;-74
2021/06/26 00:16:01;;;;;;;22.77;11.38;;;;;;;15.18;100.00;96562.59;5018980;28;20221;-74
2021/06/26 00:18:28;;;;;;;22.13;11.07;;;;;;;15.22;100.00;96566.53;5019487;28;20202;-74
2021/06/26 00:20:54;;;;;;;19.65;10.07;;;;;;;15.25;100.00;96563.50;5019554;28;20226;-73
2021/06/26 00:23:21;;;;;;;15.85;9.43;;;;;;;15.32;100.00;96556.38;5020094;28;20225;-74
2021/06/26 00:25:49;;;;;;;14.25;8.90;;;;;;;15.33;100.00;96553.53;5019562;28;20202;-73
2021/06/26 00:28:15;;;;;;;15.60;9.15;;;;;;;15.34;100.00;96555.16;5019879;28;20209;-73
2021/06/26 00:30:42;;;;;;;18.58;9.82;;;;;;;15.32;100.00;96569.66;5020348;28;20213;-73
2021/06/26 00:33:08;;;;;;;18.17;10.52;;;;;;;15.34;100.00;96570.28;5019202;28;20206;-73
2021/06/26 00:35:34;;;;;;;21.05;10.35;;;;;;;15.27;100.00;96564.13;5018667;28;20212;-73
2021/06/26 00:38:01;;;;;;;18.25;9.77;;;;;;;15.31;100.00;96565.34;5018633;28;20201;-74
2021/06/26 00:40:28;;;;;;;15.85;9.57;;;;;;;15.21;100.00;96553.47;5019252;28;20210;-74
2021/06/26 00:42:55;;;;;;;18.65;9.85;;;;;;;15.09;100.00;96550.53;5019298;28;20212;-73
2021/06/26 00:45:22;;;;;;;18.13;9.95;;;;;;;15.01;100.00;96553.34;5018653;28;20210;-73
2021/06/26 00:47:49;;;;;;;17.42;9.40;;;;;;;14.99;100.00;96555.38;5019513;28;20229;-73
2021/06/26 00:50:18;;;;;;;22.65;9.52;;;;;;;15.01;100.00;96561.31;5019060;28;20198;-74
2021/06/26 00:52:45;;;;;;;19.30;11.73;;;;;;;14.97;100.00;96562.72;5019513;28;20224;-74
2021/06/26 00:55:12;;;;;;;22.75;12.23;;;;;;;14.89;100.00;96560.22;5018414;28;21252;-73
2021/06/26 00:57:43;;;;;;;18.95;11.00;;;;;;;14.86;100.00;96557.94;5019464;28;21272;-74
2021/06/26 01:00:13;;;;;;;26.15;11.18;;;;;;;14.85;100.00;96555.50;5019539;28;20198;-74
2021/06/26 01:02:40;;;;;;;21.92;12.68;;;;;;;14.77;100.00;96555.66;5018313;28;20260;-73
2021/06/26 01:05:08;;;;;;;20.17;12.32;;;;;;;14.77;100.00;96545.84;5017770;28;20963;-73
2021/06/26 01:07:34;;;;;;;19.17;11.35;;;;;;;14.76;100.00;96552.16;5019344;28;20223;-73
2021/06/26 01:10:01;;;;;;;24.23;11.82;;;;;;;14.82;100.00;96543.44;5019394;28;20210;-73
2021/06/26 01:12:28;;;;;;;21.23;11.27;;;;;;;14.88;100.00;96542.66;5018673;28;20712;-73
2021/06/26 01:14:54;;;;;;;22.88;11.63;;;;;;;14.68;100.00;96540.91;5018783;28;20217;-73
2021/06/26 01:17:22;;;;;;;24.23;12.18;;;;;;;14.62;100.00;96530.25;5017731;28;20222;-73
2021/06/26 01:19:49;;;;;;;21.23;11.75;;;;;;;14.73;100.00;96531.34;5018486;28;20683;-73
2021/06/26 01:22:21;;;;;;;23.20;11.65;;;;;;;14.79;100.00;96533.22;5018096;28;20205;-73
2021/06/26 01:24:49;;;;;;;20.75;11.73;;;;;;;14.83;100.00;96538.97;5017900;28;20206;-74
2021/06/26 01:27:16;;;;;;;25.00;12.93;;;;;;;14.83;100.00;96534.47;5018269;28;20225;-74
2021/06/26 01:29:47;;;;;;;18.85;11.45;;;;;;;14.83;100.00;96538.97;5017428;28;20209;-73
2021/06/26 01:32:13;;;;;;;19.33;10.45;;;;;;;14.92;100.00;96533.28;5017033;28;20218;-73
2021/06/26 01:34:40;;;;;;;14.77;8.50;;;;;;;14.74;100.00;96533.00;5019027;28;20406;-74
2021/06/26 01:37:06;;;;;;;13.75;8.90;;;;;;;14.71;100.00;96529.91;5017078;28;20226;-73
2021/06/26 01:39:33;;;;;;;17.92;10.27;;;;;;;14.58;100.00;96529.81;5017784;28;20206;-73
2021/06/26 01:42:01;;;;;;;18.42;10.68;;;;;;;14.58;100.00;96531.66;5017798;28;20212;-73
2021/06/26 01:44:28;;;;;;;15.70;9.27;;;;;;;14.67;100.00;96526.81;5018770;28;20205;-73
2021/06/26 01:46:54;;;;;;;18.48;9.60;;;;;;;14.58;100.00;96529.00;5017317;28;20260;-74
2021/06/26 01:49:20;;;;;;;24.65;10.77;;;;;;;14.28;100.00;96516.94;5017999;28;20212;-74
2021/06/26 01:51:47;;;;;;;19.92;11.77;;;;;;;14.24;100.00;96516.53;5017931;28;20235;-73
2021/06/26 01:54:14;;;;;;;20.27;10.95;;;;;;;14.20;100.00;96519.75;5017651;28;20206;-73
2021/06/26 01:56:41;;;;;;;25.95;12.00;;;;;;;14.19;100.00;96515.47;5018014;28;20359;-73
2021/06/26 01:59:10;;;;;;;19.98;11.25;;;;;;;14.32;100.00;96520.84;5018706;28;20681;-73
2021/06/26 02:01:37;;;;;;;21.17;10.30;;;;;;;14.30;100.00;96520.25;5018378;28;20237;-73
2021/06/26 02:04:04;;;;;;;20.10;10.77;;;;;;;14.31;100.00;96519.25;5017214;28;20568;-73
2021/06/26 02:06:31;;;;;;;19.75;11.27;;;;;;;14.40;100.00;96520.72;5017449;28;20229;-73
2021/06/26 02:08:57;;;;;;;25.13;11.85;;;;;;;14.43;100.00;96520.34;5018324;28;20217;-73
2021/06/26 02:11:24;;;;;;;18.33;10.35;;;;;;;14.31;100.00;96524.53;5017697;28;20229;-73
2021/06/26 02:13:50;;;;;;;21.60;11.52;;;;;;;14.31;100.00;96522.69;5016823;28;20232;-73
2021/06/26 02:16:18;;;;;;;23.02;11.10;;;;;;;14.28;100.00;96528.41;5016723;28;20229;-73
2021/06/26 02:18:45;;;;;;;22.65;11.82;;;;;;;14.31;100.00;96532.50;5017684;28;20208;-73
2021/06/26 02:21:11;;;;;;;19.92;10.85;;;;;;;14.35;100.00;96528.44;5018253;28;20205;-73
2021/06/26 02:23:39;;;;;;;20.10;10.82;;;;;;;14.46;100.00;96525.25;5019280;28;20621;-73
2021/06/26 02:26:06;;;;;;;20.23;9.60;;;;;;;14.54;100.00;96530.41;5020847;28;20226;-73
2021/06/26 02:28:32;;;;;;;16.92;10.10;;;;;;;14.46;100.00;96525.25;5021080;28;20202;-73
2021/06/26 02:30:59;;;;;;;23.45;11.35;;;;;;;14.27;100.00;96532.06;5020891;28;20709;-73
2021/06/26 02:33:26;;;;;;;18.75;11.18;;;;;;;14.17;100.00;96520.16;5021009;28;20210;-73
2021/06/26 02:35:53;;;;;;;19.75;10.57;;;;;;;14.37;100.00;96532.53;5019511;28;20213;-73
2021/06/26 02:38:19;;;;;;;19.65;9.82;;;;;;;14.42;100.00;96530.13;5020530;28;20206;-73
2021/06/26 02:40:46;;;;;;;18.05;9.02;;;;;;;14.29;100.00;96530.00;5022110;28;20205;-73
2021/06/26 02:43:12;;;;;;;19.27;9.27;;;;;;;14.31;100.00;96535.94;5020649;28;20197;-73
2021/06/26 02:45:39;;;;;;;13.55;8.68;;;;;;;14.34;100.00;96529.44;5019439;28;20572;-73
2021/06/26 02:48:06;;;;;;;15.63;8.00;;;;;;;14.13;100.00;96526.84;5020925;28;20202;-73
2021/06/26 02:50:34;;;;;;;16.60;8.85;;;;;;;14.06;100.00;96529.41;5016808;28;20996;-74
2021/06/26 02:53:01;;;;;;;18.80;8.70;;;;;;;13.99;100.00;96519.75;5020816;28;20222;-73
2021/06/26 02:55:27;;;;;;;20.52;9.10;;;;;;;13.83;100.00;96520.00;5021510;28;20209;-73
2021/06/26 02:57:53;;;;;;;20.73;10.63;;;;;;;13.72;100.00;96519.69;5022086;28;20232;-73
2021/06/26 03:00:21;;;;;;;16.20;8.93;;;;;;;13.59;100.00;96514.28;5021478;28;20217;-73
2021/06/26 03:02:48;;;;;;;19.42;9.27;;;;;;;13.49;100.00;96519.88;5020519;28;20210;-73
2021/06/26 03:05:14;;;;;;;17.75;9.32;;;;;;;13.53;100.00;96512.38;5020448;28;20275;-73
2021/06/26 03:07:48;;;;;;;21.58;10.95;;;;;;;13.48;100.00;96512.94;5020719;28;20226;-73
2021/06/26 03:10:14;;;;;;;21.15;9.45;;;;;;;13.58;100.00;96518.75;5021973;28;20221;-73
2021/06/26 03:12:41;;;;;;;23.73;9.73;;;;;;;13.39;100.00;96519.38;5022379;28;20506;-73
2021/06/26 03:15:08;;;;;;;22.30;10.20;;;;;;;13.48;100.00;96512.16;5020056;28;20209;-73
2021/06/26 03:17:35;;;;;;;26.23;11.88;;;;;;;13.44;100.00;96513.50;5021152;28;20237;-73
2021/06/26 03:20:01;;;;;;;27.02;12.55;;;;;;;13.57;100.00;96508.38;5022290;28;20753;-73
2021/06/26 03:22:28;;;;;;;21.20;9.80;;;;;;;13.68;100.00;96507.84;5021343;28;20206;-73
2021/06/26 03:24:56;;;;;;;22.58;10.10;;;;;;;13.74;100.00;96513.19;5020910;28;20209;-73
2021/06/26 03:27:22;;;;;;;22.27;11.68;;;;;;;13.65;100.00;96511.69;5019818;28;20229;-73
2021/06/26 03:29:49;;;;;;;19.70;10.75;;;;;;;13.62;100.00;96513.88;5019794;28;20214;-74
2021/06/26 03:32:15;;;;;;;27.00;11.13;;;;;;;13.60;100.00;96519.38;5020972;28;20229;-73
2021/06/26 03:34:42;;;;;;;20.70;10.48;;;;;;;13.43;100.00;96517.97;5019773;28;20261;-73
2021/06/26 03:37:09;;;;;;;21.00;10.00;;;;;;;13.38;100.00;96518.72;5020801;28;20732;-73
2021/06/26 03:39:35;;;;;;;20.58;11.32;;;;;;;13.52;100.00;96511.56;5021933;28;20210;-73
2021/06/26 03:42:04;;;;;;;27.10;11.88;;;;;;;13.51;100.00;96517.84;5020342;28;20551;-73
2021/06/26 03:44:30;;;;;;;19.85;11.35;;;;;;;13.61;100.00;96514.91;5020373;28;20210;-74
2021/06/26 03:46:57;;;;;;;24.30;10.80;;;;;;;13.69;100.00;96512.94;5019641;28;20247;-73
2021/06/26 03:49:23;;;;;;;27.83;11.65;;;;;;;13.82;100.00;96513.06;5019676;28;20210;-73
2021/06/26 03:51:50;;;;;;;24.38;11.73;;;;;;;13.82;100.00;96514.91;5020466;28;20319;-73
2021/06/26 03:54:16;;;;;;;24.58;12.35;;;;;;;13.89;100.00;96515.81;5020796;28;20214;-73
2021/06/26 03:56:43;;;;;;;19.90;10.55;;;;;;;13.97;100.00;96519.13;5019687;28;20221;-73
2021/06/26 03:59:10;;;;;;;25.83;11.15;;;;;;;14.14;100.00;96523.16;5019023;28;20202;-73
2021/06/26 04:01:37;;;;;;;21.23;12.02;;;;;;;14.30;100.00;96520.25;5020258;28;20217;-73
2021/06/26 04:04:04;;;;;;;25.77;12.65;;;;;;;14.31;100.00;96516.59;5020886;28;20202;-73
2021/06/26 04:06:30;;;;;;;36.53;14.35;;;;;;;14.42;100.00;96524.00;5018651;28;20681;-73
2021/06/26 04:08:57;;;;;;;34.20;13.82;;;;;;;14.44;100.00;96524.63;5020416;28;20213;-73
2021/06/26 04:11:23;;;;;;;84.60;14.65;;;;;;;14.37;100.00;96526.41;5020606;28;20216;-73
2021/06/26 04:13:50;;;;;;;62.80;15.18;;;;;;;14.28;100.00;96527.56;5019979;28;20206;-73
2021/06/26 04:16:18;;;;;;;44.92;14.40;;;;;;;14.15;100.00;96528.28;5019367;28;20230;-73
2021/06/26 04:18:44;;;;;;;34.35;13.68;;;;;;;14.18;100.00;96527.09;5019940;28;20211;-73
2021/06/26 04:21:11;;;;;;;27.95;13.30;;;;;;;14.22;100.00;96523.84;5019449;28;20206;-73
2021/06/26 04:23:37;;;;;;;33.35;12.65;;;;;;;14.19;100.00;96518.94;5020959;28;20202;-74
2021/06/26 04:26:04;;;;;;;37.97;12.65;;;;;;;14.16;100.00;96519.31;5018522;28;21281;-73
2021/06/26 04:28:30;;;;;;;31.52;13.73;;;;;;;14.29;100.00;96515.94;5019623;28;20209;-74
2021/06/26 04:30:57;;;;;;;41.10;13.75;;;;;;;14.36;100.00;96520.28;5019220;28;20658;-74
2021/06/26 04:33:26;;;;;;;67.75;14.50;;;;;;;14.30;100.00;96525.53;5020367;28;20230;-74
2021/06/26 04:35:53;;;;;;;27.58;12.52;;;;;;;14.44;100.00;96520.13;5018444;28;21230;-74
2021/06/26 04:38:22;;;;;;;32.63;13.07;;;;;;;14.59;100.00;96522.66;5019925;28;20217;-74
2021/06/26 04:40:48;;;;;;;27.13;11.52;;;;;;;14.71;100.00;96524.59;5019278;28;20296;-74
2021/06/26 04:43:15;;;;;;;40.97;12.48;;;;;;;14.71;100.00;96528.09;5019414;28;20201;-73
2021/06/26 04:45:44;;;;;;;44.20;12.02;;;;;;;14.77;100.00;96524.63;5018905;28;20206;-73
2021/06/26 04:48:10;;;;;;;24.52;12.48;;;;;;;14.78;100.00;96531.56;5020157;28;20198;-74
2021/06/26 04:50:39;;;;;;;39.20;14.25;;;;;;;14.83;100.00;96523.84;5019114;28;20201;-73
2021/06/26 04:53:05;;;;;;;35.15;12.43;;;;;;;15.03;100.00;96524.78;5019613;28;20221;-73
2021/06/26 04:55:32;;;;;;;58.40;11.52;;;;;;;15.08;100.00;96527.63;5018355;28;20721;-73
2021/06/26 04:57:58;;;;;;;21.15;10.52;;;;;;;15.13;100.00;96533.19;5019490;28;20229;-73
2021/06/26 05:00:25;;;;;;;20.17;9.60;;;;;;;15.24;100.00;96531.84;5018852;28;20217;-73
2021/06/26 05:02:52;;;;;;;21.77;11.43;;;;;;;15.26;100.00;96525.28;5018791;28;20224;-73
2021/06/26 05:05:18;;;;;;;21.35;11.40;;;;;;;15.41;100.00;96528.63;5020598;28;20228;-73
2021/06/26 05:07:46;;;;;;;25.10;11.52;;;;;;;15.43;100.00;96526.59;5020433;28;20222;-73
2021/06/26 05:10:13;;;;;;;19.45;10.93;;;;;;;15.55;100.00;96528.47;5021085;28;20217;-73
2021/06/26 05:12:42;;;;;;;19.08;10.50;;;;;;;15.49;100.00;96531.94;5021157;28;20229;-73
2021/06/26 05:15:10;;;;;;;19.73;10.60;;;;;;;15.65;100.00;96526.25;5020855;28;20213;-73
2021/06/26 05:17:36;;;;;;;27.70;10.57;;;;;;;15.68;100.00;96535.66;5020259;28;20225;-73
2021/06/26 05:20:03;;;;;;;16.00;10.05;;;;;;;15.80;100.00;96529.56;5019905;28;20207;-73
2021/06/26 05:22:30;;;;;;;19.83;10.15;;;;;;;15.84;100.00;96536.91;5019710;28;20653;-73
2021/06/26 05:24:58;;;;;;;16.55;10.45;;;;;;;15.86;100.00;96529.56;5019966;28;20213;-73
2021/06/26 05:27:24;;;;;;;21.92;9.65;;;;;;;15.91;100.00;96537.75;5019928;28;20226;-73
2021/06/26 05:29:51;;;;;;;15.93;9.20;;;;;;;15.91;100.00;96526.28;5020901;28;20210;-73
2021/06/26 05:32:17;;;;;;;17.52;9.18;;;;;;;15.80;100.00;96528.75;5020313;28;20260;-73
2021/06/26 05:34:44;;;;;;;16.70;9.20;;;;;;;15.59;100.00;96521.75;5020177;28;20206;-73
2021/06/26 05:37:10;;;;;;;22.77;9.35;;;;;;;15.72;100.00;96528.91;5020261;28;20277;-73
2021/06/26 05:39:37;;;;;;;17.58;10.05;;;;;;;15.83;100.00;96529.13;5020308;28;20213;-73
2021/06/26 05:42:06;;;;;;;22.30;10.20;;;;;;;15.81;100.00;96531.19;5020839;28;20201;-73
2021/06/26 05:44:32;;;;;;;23.35;11.10;;;;;;;15.80;100.00;96528.75;5019770;28;20639;-73
2021/06/26 05:46:59;;;;;;;17.35;10.57;;;;;;;15.88;100.00;96521.38;5019110;28;20226;-73
2021/06/26 05:49:25;;;;;;;16.05;10.02;;;;;;;15.94;100.00;96533.88;5019887;28;20210;-73
2021/06/26 05:51:52;;;;;;;16.60;10.40;;;;;;;16.14;100.00;96524.91;5019999;28;21226;-73
2021/06/26 05:54:18;;;;;;;19.17;10.43;;;;;;;16.36;100.00;96531.66;5019833;28;20229;-74
2021/06/26 05:56:45;;;;;;;18.73;10.85;;;;;;;16.50;100.00;96527.97;5018814;28;20238;-73
2021/06/26 05:59:13;;;;;;;27.98;12.77;;;;;;;16.61;100.00;96527.34;5021087;28;20579;-73
2021/06/26 06:01:39;;;;;;;18.77;11.45;;;;;;;16.77;100.00;96524.25;5023313;28;20198;-73
2021/06/26 06:04:06;;;;;;;18.67;11.75;;;;;;;16.87;100.00;96529.97;5022536;28;20569;-73
2021/06/26 06:06:33;;;;;;;24.52;14.73;;;;;;;16.94;100.00;96534.25;5022009;28;20233;-71
2021/06/26 06:08:59;;;;;;;29.75;15.93;;;;;;;17.13;100.00;96528.88;5021829;28;20210;-71
2021/06/26 06:11:26;;;;;;;24.42;14.73;;;;;;;16.95;100.00;96530.53;5021645;28;20206;-72
2021/06/26 06:13:52;;;;;;;29.02;13.90;;;;;;;16.98;100.00;96526.66;5021546;28;20240;-71
2021/06/26 06:16:20;;;;;;;27.63;15.63;;;;;;;16.93;100.00;96529.13;5020757;28;20232;-73
2021/06/26 06:18:47;;;;;;;28.85;16.30;;;;;;;16.91;100.00;96532.00;5022096;28;20205;-71
2021/06/26 06:21:15;;;;;;;32.20;17.85;;;;;;;17.13;100.00;96523.53;5022524;28;21051;-72
2021/06/26 06:23:41;;;;;;;29.45;17.73;;;;;;;17.28;100.00;96524.13;5021816;28;20202;-72
2021/06/26 06:26:08;;;;;;;33.65;18.25;;;;;;;17.52;100.00;96526.06;5021242;28;20222;-72
2021/06/26 06:28:34;;;;;;;36.97;20.40;;;;;;;17.49;100.00;96526.50;5023612;28;20221;-70
2021/06/26 06:31:01;;;;;;;40.20;22.27;;;;;;;17.69;100.00;96527.19;5021279;28;20213;-71
2021/06/26 06:33:30;;;;;;;38.20;20.92;;;;;;;17.69;100.00;96527.19;5019573;28;20248;-71
2021/06/26 06:35:56;;;;;;;37.65;20.67;;;;;;;17.81;100.00;96531.66;5019387;28;20226;-71
2021/06/26 06:38:23;;;;;;;37.03;20.85;;;;;;;18.03;100.00;96535.59;5019880;28;20210;-73
2021/06/26 06:40:50;;;;;;;38.95;21.02;;;;;;;18.13;100.00;96530.63;5019463;28;20473;-70
2021/06/26 06:43:16;;;;;;;36.78;20.15;;;;;;;18.09;100.00;96523.28;5020560;28;20213;-71
2021/06/26 06:45:43;;;;;;;41.13;22.95;;;;;;;18.44;100.00;96525.25;5019749;28;20677;-71
2021/06/26 06:48:09;;;;;;;36.55;22.48;;;;;;;18.51;100.00;96528.72;5019897;28;20206;-72
2021/06/26 06:50:37;;;;;;;37.72;22.23;;;;;;;18.44;100.00;96528.78;5020997;28;20228;-70
2021/06/26 06:53:04;;;;;;;36.08;21.90;;;;;;;18.28;100.00;96535.66;5020506;28;20218;-71
2021/06/26 06:55:31;;;;;;;37.70;22.60;;;;;;;18.20;100.00;96527.94;5020095;28;20236;-72
2021/06/26 06:57:57;;;;;;;37.10;22.90;;;;;;;18.22;100.00;96531.22;5020011;28;20218;-72
2021/06/26 07:00:24;;;;;;;37.25;22.70;;;;;;;18.18;100.00;96530.81;5020396;28;20206;-71
2021/06/26 07:02:50;;;;;;;38.75;21.73;;;;;;;18.30;100.00;96525.59;5020528;28;20658;-71
2021/06/26 07:05:17;;;;;;;40.67;23.35;;;;;;;18.76;100.00;96533.00;5020374;28;20221;-71
2021/06/26 07:07:45;;;;;;;43.83;24.08;;;;;;;18.88;100.00;96525.06;5021069;28;20229;-70
2021/06/26 07:10:12;;;;;;;39.53;24.23;;;;;;;18.78;100.00;96516.75;5021898;28;20225;-71
2021/06/26 07:12:38;;;;;;;39.88;22.95;;;;;;;18.61;100.00;96523.66;5020901;28;20202;-71
2021/06/26 07:15:07;;;;;;;42.53;23.70;;;;;;;18.51;100.00;96524.19;5018248;28;20206;-73
2021/06/26 07:17:33;;;;;;;44.22;25.48;;;;;;;18.56;100.00;96524.34;5020540;28;20260;-71
2021/06/26 07:20:00;;;;;;;39.38;23.48;;;;;;;18.58;100.00;96530.28;5020905;28;20210;-71
2021/06/26 07:22:26;;;;;;;43.50;24.73;;;;;;;18.66;100.00;96527.34;5020199;28;20951;-71
2021/06/26 07:24:54;;;;;;;37.03;22.20;;;;;;;18.77;100.00;96531.94;5020824;28;20202;-71
2021/06/26 07:27:21;;;;;;;42.92;24.05;;;;;;;18.96;100.00;96528.25;5021054;28;20725;-71
2021/06/26 07:29:47;;;;;;;43.08;23.75;;;;;;;18.97;100.00;96532.56;5020052;28;20209;-71
2021/06/26 07:32:14;;;;;;;40.85;22.70;;;;;;;18.96;100.00;96521.06;5020121;28;20612;-72
2021/06/26 07:34:40;;;;;;;40.72;23.77;;;;;;;19.17;100.00;96514.47;5021274;28;20226;-71
2021/06/26 07:37:07;;;;;;;41.72;24.83;;;;;;;18.96;100.00;96525.59;5018793;28;20221;-70
2021/06/26 07:39:34;;;;;;;41.78;24.60;;;;;;;18.97;100.00;96520.00;5019853;28;20689;-74
2021/06/26 07:42:02;;;;;;;41.38;24.23;;;;;;;18.99;100.00;96517.94;5018653;28;20211;-70
2021/06/26 07:44:29;;;;;;;41.25;23.90;;;;;;;19.10;100.00;96514.56;5020817;28;20202;-71
2021/06/26 07:46:55;;;;;;;37.97;22.45;;;;;;;19.31;100.00;96515.97;5016531;28;20249;-71
2021/06/26 07:49:22;;;;;;;40.40;23.10;;;;;;;19.39;100.00;96521.03;5019568;28;20210;-73
2021/06/26 07:51:48;;;;;;;35.20;20.83;;;;;;;19.57;100.00;96518.31;5019656;28;20680;-72
2021/06/26 07:54:16;;;;;;;34.15;20.35;;;;;;;19.73;100.00;96513.97;5020041;28;20225;-71
2021/06/26 07:56:43;;;;;;;32.47;19.38;;;;;;;19.69;100.00;96510.13;5019399;28;20228;-72
2021/06/26 07:59:11;;;;;;;35.47;20.25;;;;;;;19.92;100.00;96501.38;5020032;28;20202;-71
2021/06/26 08:01:38;;;;;;;33.17;20.05;;;;;;;20.17;100.00;96502.84;5019986;28;20582;-70
2021/06/26 08:04:04;;;;;;;27.48;17.50;;;;;;;20.34;100.00;96499.28;5019286;28;20205;-71
2021/06/26 08:06:31;;;;;;;29.95;18.35;;;;;;;20.66;100.00;96497.91;5018802;28;20226;-71
2021/06/26 08:08:58;;;;;;;30.60;16.30;;;;;;;20.63;99.65;96498.38;5020445;28;20209;-72
2021/06/26 08:11:24;;;;;;;28.65;17.02;;;;;;;20.82;96.63;96496.44;5019300;28;20677;-71
2021/06/26 08:13:52;;;;;;;25.95;16.55;;;;;;;20.66;96.76;96500.59;5019262;28;20226;-73
2021/06/26 08:16:20;;;;;;;28.25;17.00;;;;;;;20.58;98.00;96497.44;5018437;28;20325;-73
2021/06/26 08:18:47;;;;;;;25.45;16.40;;;;;;;20.54;100.00;96496.28;5020098;28;20213;-72
2021/06/26 08:21:13;;;;;;;24.10;15.43;;;;;;;20.33;99.33;96502.19;5018658;28;20213;-73
2021/06/26 08:23:40;;;;;;;26.60;15.73;;;;;;;20.14;100.00;96495.28;5019651;28;20217;-71
2021/06/26 08:26:06;;;;;;;24.02;16.35;;;;;;;20.40;100.00;96500.22;5017701;28;20232;-72
2021/06/26 08:28:33;;;;;;;25.27;15.00;;;;;;;20.13;100.00;96493.66;5019169;28;20205;-72
2021/06/26 08:30:59;;;;;;;22.35;14.90;;;;;;;20.03;100.00;96493.41;5019860;28;20217;-70
2021/06/26 08:33:27;;;;;;;20.60;14.48;;;;;;;20.02;100.00;96494.47;5018487;28;20237;-73
2021/06/26 08:35:54;;;;;;;27.52;15.32;;;;;;;19.99;100.00;96494.91;5017535;28;20204;-75
2021/06/26 08:38:20;;;;;;;23.50;14.43;;;;;;;20.02;100.00;96494.47;5018474;28;20206;-72
2021/06/26 08:40:49;;;;;;;23.30;14.30;;;;;;;20.23;100.00;96486.69;5018690;28;20661;-76
2021/06/26 08:43:16;;;;;;;20.15;14.05;;;;;;;20.36;99.45;96486.47;5019245;28;20201;-75
2021/06/26 08:45:43;;;;;;;22.25;14.82;;;;;;;20.53;100.00;96481.25;5018522;28;20198;-71
2021/06/26 08:48:10;;;;;;;23.10;14.50;;;;;;;20.39;97.02;96480.69;5019093;28;20198;-70
2021/06/26 08:50:38;;;;;;;20.90;14.02;;;;;;;20.59;97.98;96485.69;5020058;28;20206;-73
2021/06/26 08:53:05;;;;;;;22.40;14.27;;;;;;;20.46;100.00;96481.38;5018074;28;20198;-74
2021/06/26 08:55:31;;;;;;;20.38;13.80;;;;;;;20.63;96.35;96482.28;5018083;28;20213;-72
2021/06/26 08:57:58;;;;;;;21.17;13.52;;;;;;;20.27;96.06;96481.69;5018754;28;20236;-73
2021/06/26 09:00:26;;;;;;;21.33;12.95;;;;;;;20.57;94.60;96482.41;5018944;28;20202;-75
2021/06/26 09:03:06;;;;;;;19.55;13.43;;;;;;;20.68;97.51;96473.56;5018410;28;20198;-73
2021/06/26 09:05:33;;;;;;;18.48;12.45;;;;;;;20.97;97.87;96470.78;5016939;28;20213;-72
2021/06/26 09:08:10;;;;;;;18.83;12.68;;;;;;;21.09;92.57;96467.03;5017294;28;20228;-75
2021/06/26 09:10:38;;;;;;;19.90;12.75;;;;;;;20.96;91.59;96469.16;5017438;28;20212;-71
2021/06/26 09:13:17;;;;;;;20.17;12.80;;;;;;;21.13;93.20;96467.38;5017800;28;20205;-76
2021/06/26 09:15:45;;;;;;;18.77;12.77;;;;;;;21.48;91.78;96460.84;5017254;28;20205;-74
2021/06/26 09:18:14;;;;;;;19.83;11.27;;;;;;;21.64;89.59;96460.16;5018109;28;20198;-72
2021/06/26 09:20:43;;;;;;;19.83;12.77;;;;;;;21.71;89.14;96460.81;5017411;28;20207;-75
2021/06/26 09:23:33;;;;;;;22.33;13.38;;;;;;;21.99;90.06;96464.28;5018444;28;20201;-71
2021/06/26 09:26:07;;;;;;;15.77;11.52;;;;;;;22.15;88.25;96463.50;5015758;28;20350;-73
2021/06/26 09:28:35;;;;;;;16.60;11.88;;;;;;;22.07;83.11;96461.19;5018012;28;20216;-71
2021/06/26 09:31:02;;;;;;;18.55;11.43;;;;;;;22.12;85.57;96459.41;5018075;28;20213;-72
2021/06/26 09:33:29;;;;;;;15.57;11.23;;;;;;;22.44;87.25;96457.00;5016718;28;20233;-71
2021/06/26 09:36:07;;;;;;;14.20;9.65;;;;;;;22.48;82.42;96460.81;5016683;28;20256;-73
2021/06/26 09:38:36;;;;;;;16.05;10.52;;;;;;;22.64;84.95;96460.81;5017232;28;20201;-71
2021/06/26 09:41:14;;;;;;;14.30;10.23;;;;;;;22.60;84.36;96454.31;5017827;28;20210;-72
2021/06/26 09:43:41;;;;;;;15.48;10.85;;;;;;;22.62;86.11;96451.38;5018896;28;20199;-72
2021/06/26 09:46:09;;;;;;;12.25;8.18;;;;;;;22.76;78.38;96446.22;5015569;28;20229;-73
2021/06/26 09:48:47;;;;;;;11.13;8.35;;;;;;;22.40;78.42;96453.19;5018008;28;20421;-74
2021/06/26 09:51:21;;;;;;;15.75;9.80;;;;;;;22.27;84.50;96451.63;5017422;28;20202;-73
2021/06/26 09:54:08;;;;;;;12.57;9.32;;;;;;;22.56;93.53;96461.22;5017314;28;20217;-71
2021/06/26 09:56:43;;;;;;;13.75;9.63;;;;;;;22.44;83.13;96451.63;5016502;28;20218;-73
2021/06/26 09:59:11;;;;;;;13.38;10.00;;;;;;;22.13;84.94;96458.38;5017965;28;20202;-75
2021/06/26 10:01:41;;;;;;;13.93;10.02;;;;;;;22.18;87.12;96445.00;5017276;28;20209;-71
2021/06/26 10:04:08;;;;;;;13.02;9.73;;;;;;;22.62;86.21;96448.69;5018163;28;20208;-70
2021/06/26 10:06:35;;;;;;;12.38;9.50;;;;;;;22.83;84.29;96446.06;5016512;28;20232;-72
2021/06/26 10:09:03;;;;;;;13.40;8.75;;;;;;;22.90;76.32;96447.50;5018136;28;20217;-73
2021/06/26 10:11:32;;;;;;;9.85;8.00;;;;;;;23.02;76.63;96445.53;5017839;28;20198;-74
2021/06/26 10:14:01;;;;;;;10.45;7.93;;;;;;;22.82;79.17;96444.41;5018753;28;20222;-73
2021/06/26 10:16:30;;;;;;;11.23;7.30;;;;;;;23.19;77.60;96450.88;5016310;28;20259;-74
2021/06/26 10:18:59;;;;;;;11.18;8.85;;;;;;;23.27;74.65;96443.19;5017834;28;20614;-70
2021/06/26 10:21:26;;;;;;;15.27;9.02;;;;;;;23.17;75.69;96439.56;5018120;28;20210;-71
2021/06/26 10:23:54;;;;;;;12.85;9.20;;;;;;;23.13;81.62;96441.94;5017340;28;20264;-70
2021/06/26 10:26:21;;;;;;;12.02;8.73;;;;;;;23.30;75.61;96430.03;5017290;28;20228;-72
2021/06/26 10:28:53;;;;;;;15.07;9.70;;;;;;;23.38;74.80;96434.97;5017722;28;20198;-70
2021/06/26 10:31:30;;;;;;;12.20;8.25;;;;;;;23.60;74.53;96435.78;5017742;28;20216;-72
2021/06/26 10:34:08;;;;;;;11.48;8.55;;;;;;;23.96;74.23;96424.31;5017827;28;20237;-70
2021/06/26 10:36:36;;;;;;;14.05;9.35;;;;;;;24.06;71.83;96429.81;5015861;28;20217;-73
2021/06/26 10:39:03;;;;;;;16.88;9.80;;;;;;;23.98;74.23;96424.88;5017132;28;20210;-70
2021/06/26 10:41:30;;;;;;;13.77;9.38;;;;;;;23.88;74.39;96423.97;5016876;28;20201;-72
2021/06/26 10:44:00;;;;;;;12.93;9.50;;;;;;;23.59;78.07;96415.31;5017130;28;20202;-75
2021/06/26 10:46:26;;;;;;;12.63;9.38;;;;;;;23.11;78.66;96427.91;5020457;28;20328;-75
2021/06/26 10:48:59;;;;;;;12.85;9.10;;;;;;;23.01;76.13;96418.91;5021732;28;20197;-71
2021/06/26 10:51:33;;;;;;;12.55;9.35;;;;;;;22.98;79.94;96422.06;5020485;28;20291;-74
2021/06/26 10:54:10;;;;;;;18.48;10.55;;;;;;;23.02;79.94;96412.47;5020902;28;20224;-70
2021/06/26 10:56:36;;;;;;;13.00;9.70;;;;;;;23.35;81.73;96408.56;5020399;28;20725;-74
2021/06/26 10:59:10;;;;;;;14.20;10.57;;;;;;;23.14;77.21;96405.09;5021283;28;20666;-70
2021/06/26 11:01:38;;;;;;;14.65;10.15;;;;;;;23.30;78.78;96406.91;5020940;28;20209;-72
2021/06/26 11:04:10;;;;;;;13.07;9.88;;;;;;;22.96;77.50;96418.81;5020039;28;20208;-70
2021/06/26 11:06:38;;;;;;;15.82;10.15;;;;;;;22.73;78.62;96419.03;5019935;28;20225;-71
2021/06/26 11:09:07;;;;;;;15.48;10.35;;;;;;;22.90;81.53;96419.81;5020738;28;20198;-70
2021/06/26 11:11:36;;;;;;;14.10;10.23;;;;;;;23.05;78.37;96417.34;5020479;28;20209;-72
2021/06/26 11:14:12;;;;;;;15.02;9.73;;;;;;;23.31;75.47;96402.06;5020573;28;20316;-75